sensor_id;sensor_type;location;lat;lon;timestamp;pressure;altitude;pressure_sealevel;temperature
69785;BMP280;14177;51.520;6.764;2023-04-03T00:01:16;102777.63;;;2.46
69785;BMP280;14177;51.520;6.764;2023-04-03T00:03:43;102778.34;;;2.42
69785;BMP280;14177;51.520;6.764;2023-04-03T00:06:11;102774.88;;;2.40
69785;BMP280;14177;51.520;6.764;2023-04-03T00:08:40;102771.38;;;2.38
69785;BMP280;14177;51.520;6.764;2023-04-03T00:11:09;102775.56;;;2.35
69785;BMP280;14177;51.520;6.764;2023-04-03T00:13:38;102774.56;;;2.31
69785;BMP280;14177;51.520;6.764;2023-04-03T00:16:08;102779.59;;;2.28
69785;BMP280;14177;51.520;6.764;2023-04-03T00:18:39;102772.59;;;2.24
69785;BMP280;14177;51.520;6.764;2023-04-03T00:21:09;102770.81;;;2.22
69785;BMP280;14177;51.520;6.764;2023-04-03T00:23:36;102768.19;;;2.20
69785;BMP280;14177;51.520;6.764;2023-04-03T00:26:03;102768.16;;;2.19
69785;BMP280;14177;51.520;6.764;2023-04-03T00:28:30;102768.00;;;2.14
69785;BMP280;14177;51.520;6.764;2023-04-03T00:30:57;102774.72;;;2.11
69785;BMP280;14177;51.520;6.764;2023-04-03T00:33:25;102776.34;;;2.09
69785;BMP280;14177;51.520;6.764;2023-04-03T00:35:52;102777.88;;;2.04
69785;BMP280;14177;51.520;6.764;2023-04-03T00:38:20;102774.38;;;2.00
69785;BMP280;14177;51.520;6.764;2023-04-03T00:40:49;102772.50;;;1.96
69785;BMP280;14177;51.520;6.764;2023-04-03T00:43:21;102776.72;;;1.94
69785;BMP280;14177;51.520;6.764;2023-04-03T00:45:56;102775.72;;;1.91
69785;BMP280;14177;51.520;6.764;2023-04-03T00:48:29;102777.41;;;1.90
69785;BMP280;14177;51.520;6.764;2023-04-03T00:50:58;102776.59;;;1.91
69785;BMP280;14177;51.520;6.764;2023-04-03T00:53:32;102785.13;;;1.90
69785;BMP280;14177;51.520;6.764;2023-04-03T00:56:00;102780.72;;;1.88
69785;BMP280;14177;51.520;6.764;2023-04-03T00:58:37;102785.00;;;1.87
69785;BMP280;14177;51.520;6.764;2023-04-03T01:01:12;102781.50;;;1.85
69785;BMP280;14177;51.520;6.764;2023-04-03T01:03:41;102781.41;;;1.82
69785;BMP280;14177;51.520;6.764;2023-04-03T01:06:08;102783.03;;;1.80
69785;BMP280;14177;51.520;6.764;2023-04-03T01:08:36;102782.94;;;1.77
69785;BMP280;14177;51.520;6.764;2023-04-03T01:11:03;102781.06;;;1.73
69785;BMP280;14177;51.520;6.764;2023-04-03T01:13:33;102792.97;;;1.71
69785;BMP280;14177;51.520;6.764;2023-04-03T01:16:05;102788.63;;;1.69
69785;BMP280;14177;51.520;6.764;2023-04-03T01:18:36;102790.25;;;1.67
69785;BMP280;14177;51.520;6.764;2023-04-03T01:21:53;102797.84;;;1.65
69785;BMP280;14177;51.520;6.764;2023-04-03T01:24:35;102790.13;;;1.64
69785;BMP280;14177;51.520;6.764;2023-04-03T01:27:07;102794.47;;;1.66
69785;BMP280;14177;51.520;6.764;2023-04-03T01:29:36;102796.34;;;1.70
69785;BMP280;14177;51.520;6.764;2023-04-03T01:32:04;102797.25;;;1.72
69785;BMP280;14177;51.520;6.764;2023-04-03T01:34:32;102796.31;;;1.69
69785;BMP280;14177;51.520;6.764;2023-04-03T01:37:00;102799.72;;;1.69
69785;BMP280;14177;51.520;6.764;2023-04-03T01:39:27;102803.22;;;1.71
69785;BMP280;14177;51.520;6.764;2023-04-03T01:41:55;102799.84;;;1.72
69785;BMP280;14177;51.520;6.764;2023-04-03T01:44:32;102801.66;;;1.75
69785;BMP280;14177;51.520;6.764;2023-04-03T01:46:59;102799.13;;;1.76
69785;BMP280;14177;51.520;6.764;2023-04-03T01:49:28;102803.50;;;1.79
69785;BMP280;14177;51.520;6.764;2023-04-03T01:51:55;102797.56;;;1.80
69785;BMP280;14177;51.520;6.764;2023-04-03T01:54:22;102792.47;;;1.81
69785;BMP280;14177;51.520;6.764;2023-04-03T01:56:50;102801.91;;;1.82
69785;BMP280;14177;51.520;6.764;2023-04-03T01:59:18;102802.03;;;1.85
69785;BMP280;14177;51.520;6.764;2023-04-03T02:01:46;102801.13;;;1.85
69785;BMP280;14177;51.520;6.764;2023-04-03T02:04:13;102807.19;;;1.87
69785;BMP280;14177;51.520;6.764;2023-04-03T02:06:41;102815.09;;;1.93
69785;BMP280;14177;51.520;6.764;2023-04-03T02:09:08;102816.72;;;1.91
69785;BMP280;14177;51.520;6.764;2023-04-03T02:11:35;102813.19;;;1.87
69785;BMP280;14177;51.520;6.764;2023-04-03T02:14:02;102804.63;;;1.87
69785;BMP280;14177;51.520;6.764;2023-04-03T02:16:29;102809.75;;;1.87
69785;BMP280;14177;51.520;6.764;2023-04-03T02:18:57;102816.59;;;1.86
69785;BMP280;14177;51.520;6.764;2023-04-03T02:21:25;102822.53;;;1.85
69785;BMP280;14177;51.520;6.764;2023-04-03T02:23:53;102818.16;;;1.83
69785;BMP280;14177;51.520;6.764;2023-04-03T02:26:20;102820.66;;;1.81
69785;BMP280;14177;51.520;6.764;2023-04-03T02:28:47;102816.31;;;1.79
69785;BMP280;14177;51.520;6.764;2023-04-03T02:31:15;102811.81;;;1.73
69785;BMP280;14177;51.520;6.764;2023-04-03T02:33:43;102818.59;;;1.71
69785;BMP280;14177;51.520;6.764;2023-04-03T02:36:13;102811.59;;;1.67
69785;BMP280;14177;51.520;6.764;2023-04-03T02:38:43;102815.78;;;1.65
69785;BMP280;14177;51.520;6.764;2023-04-03T02:41:12;102819.13;;;1.63
69785;BMP280;14177;51.520;6.764;2023-04-03T02:43:40;102819.88;;;1.60
69785;BMP280;14177;51.520;6.764;2023-04-03T02:46:07;102820.66;;;1.58
69785;BMP280;14177;51.520;6.764;2023-04-03T02:48:37;102820.47;;;1.53
69785;BMP280;14177;51.520;6.764;2023-04-03T02:51:04;102816.94;;;1.50
69785;BMP280;14177;51.520;6.764;2023-04-03T02:53:32;102824.50;;;1.47
69785;BMP280;14177;51.520;6.764;2023-04-03T02:56:05;102823.59;;;1.46
69785;BMP280;14177;51.520;6.764;2023-04-03T02:58:32;102822.59;;;1.41
69785;BMP280;14177;51.520;6.764;2023-04-03T03:01:02;102823.41;;;1.40
69785;BMP280;14177;51.520;6.764;2023-04-03T03:03:29;102835.28;;;1.38
69785;BMP280;14177;51.520;6.764;2023-04-03T03:06:13;102829.22;;;1.36
69785;BMP280;14177;51.520;6.764;2023-04-03T03:08:41;102838.53;;;1.34
69785;BMP280;14177;51.520;6.764;2023-04-03T03:11:09;102842.75;;;1.32
69785;BMP280;14177;51.520;6.764;2023-04-03T03:13:36;102841.09;;;1.34
69785;BMP280;14177;51.520;6.764;2023-04-03T03:16:07;102840.28;;;1.35
69785;BMP280;14177;51.520;6.764;2023-04-03T03:18:37;102841.09;;;1.34
69785;BMP280;14177;51.520;6.764;2023-04-03T03:21:04;102841.16;;;1.36
69785;BMP280;14177;51.520;6.764;2023-04-03T03:23:32;102840.34;;;1.37
69785;BMP280;14177;51.520;6.764;2023-04-03T03:26:07;102837.72;;;1.35
69785;BMP280;14177;51.520;6.764;2023-04-03T03:28:36;102843.59;;;1.33
69785;BMP280;14177;51.520;6.764;2023-04-03T03:31:05;102842.78;;;1.34
69785;BMP280;14177;51.520;6.764;2023-04-03T03:33:34;102835.06;;;1.32
69785;BMP280;14177;51.520;6.764;2023-04-03T03:36:04;102835.78;;;1.30
69785;BMP280;14177;51.520;6.764;2023-04-03T03:38:36;102842.53;;;1.28
69785;BMP280;14177;51.520;6.764;2023-04-03T03:41:03;102841.59;;;1.26
69785;BMP280;14177;51.520;6.764;2023-04-03T03:43:33;102838.13;;;1.24
69785;BMP280;14177;51.520;6.764;2023-04-03T03:46:00;102836.38;;;1.23
69785;BMP280;14177;51.520;6.764;2023-04-03T03:48:27;102842.38;;;1.23
69785;BMP280;14177;51.520;6.764;2023-04-03T03:50:55;102847.50;;;1.23
69785;BMP280;14177;51.520;6.764;2023-04-03T03:53:26;102842.38;;;1.23
69785;BMP280;14177;51.520;6.764;2023-04-03T03:55:58;102840.63;;;1.22
69785;BMP280;14177;51.520;6.764;2023-04-03T03:58:27;102844.00;;;1.21
69785;BMP280;14177;51.520;6.764;2023-04-03T04:00:54;102839.63;;;1.19
69785;BMP280;14177;51.520;6.764;2023-04-03T04:03:21;102847.25;;;1.17
69785;BMP280;14177;51.520;6.764;2023-04-03T04:05:50;102844.81;;;1.20
69785;BMP280;14177;51.520;6.764;2023-04-03T04:08:17;102840.63;;;1.22
69785;BMP280;14177;51.520;6.764;2023-04-03T04:10:45;102849.13;;;1.21
69785;BMP280;14177;51.520;6.764;2023-04-03T04:13:14;102853.34;;;1.21
69785;BMP280;14177;51.520;6.764;2023-04-03T04:15:43;102850.88;;;1.22
69785;BMP280;14177;51.520;6.764;2023-04-03T04:18:10;102857.88;;;1.26
69785;BMP280;14177;51.520;6.764;2023-04-03T04:20:40;102862.41;;;1.33
69785;BMP280;14177;51.520;6.764;2023-04-03T04:23:07;102858.09;;;1.32
69785;BMP280;14177;51.520;6.764;2023-04-03T04:25:36;102873.50;;;1.34
69785;BMP280;14177;51.520;6.764;2023-04-03T04:28:05;102869.22;;;1.33
69785;BMP280;14177;51.520;6.764;2023-04-03T04:30:32;102869.28;;;1.34
69785;BMP280;14177;51.520;6.764;2023-04-03T04:32:59;102865.94;;;1.37
69785;BMP280;14177;51.520;6.764;2023-04-03T04:35:27;102870.25;;;1.38
69785;BMP280;14177;51.520;6.764;2023-04-03T04:37:54;102875.38;;;1.38
69785;BMP280;14177;51.520;6.764;2023-04-03T04:40:48;102873.72;;;1.38
69785;BMP280;14177;51.520;6.764;2023-04-03T04:43:16;102880.59;;;1.39
69785;BMP280;14177;51.520;6.764;2023-04-03T04:46:10;102877.94;;;1.38
69785;BMP280;14177;51.520;6.764;2023-04-03T04:48:46;102889.94;;;1.39
69785;BMP280;14177;51.520;6.764;2023-04-03T04:51:17;102887.34;;;1.37
69785;BMP280;14177;51.520;6.764;2023-04-03T04:53:44;102892.47;;;1.37
69785;BMP280;14177;51.520;6.764;2023-04-03T04:56:14;102890.72;;;1.36
69785;BMP280;14177;51.520;6.764;2023-04-03T04:58:42;102897.56;;;1.37
69785;BMP280;14177;51.520;6.764;2023-04-03T05:01:10;102893.19;;;1.35
69785;BMP280;14177;51.520;6.764;2023-04-03T05:03:47;102895.72;;;1.33
69785;BMP280;14177;51.520;6.764;2023-04-03T05:06:15;102894.91;;;1.34
69785;BMP280;14177;51.520;6.764;2023-04-03T05:08:55;102899.22;;;1.35
69785;BMP280;14177;51.520;6.764;2023-04-03T05:11:33;102892.34;;;1.34
69785;BMP280;14177;51.520;6.764;2023-04-03T05:14:12;102897.47;;;1.34
69785;BMP280;14177;51.520;6.764;2023-04-03T05:16:40;102899.09;;;1.32
69785;BMP280;14177;51.520;6.764;2023-04-03T05:19:07;102899.09;;;1.32
69785;BMP280;14177;51.520;6.764;2023-04-03T05:21:34;102907.72;;;1.34
69785;BMP280;14177;51.520;6.764;2023-04-03T05:24:07;102900.84;;;1.33
69785;BMP280;14177;51.520;6.764;2023-04-03T05:26:58;102912.81;;;1.34
69785;BMP280;14177;51.520;6.764;2023-04-03T05:29:52;102905.19;;;1.36
69785;BMP280;14177;51.520;6.764;2023-04-03T05:32:26;102911.13;;;1.35
69785;BMP280;14177;51.520;6.764;2023-04-03T05:35:09;102912.00;;;1.35
69785;BMP280;14177;51.520;6.764;2023-04-03T05:37:43;102911.22;;;1.36
69785;BMP280;14177;51.520;6.764;2023-04-03T05:40:18;102922.44;;;1.40
69785;BMP280;14177;51.520;6.764;2023-04-03T05:42:50;102919.88;;;1.40
69785;BMP280;14177;51.520;6.764;2023-04-03T05:45:18;102922.44;;;1.40
69785;BMP280;14177;51.520;6.764;2023-04-03T05:47:46;102932.78;;;1.43
69785;BMP280;14177;51.520;6.764;2023-04-03T05:50:14;102938.03;;;1.46
69785;BMP280;14177;51.520;6.764;2023-04-03T05:52:45;102942.34;;;1.47
69785;BMP280;14177;51.520;6.764;2023-04-03T05:55:14;102944.16;;;1.49
69785;BMP280;14177;51.520;6.764;2023-04-03T05:57:41;102941.72;;;1.52
69785;BMP280;14177;51.520;6.764;2023-04-03T06:00:14;102947.75;;;1.54
69785;BMP280;14177;51.520;6.764;2023-04-03T06:02:47;102950.56;;;1.60
69785;BMP280;14177;51.520;6.764;2023-04-03T06:05:19;102958.38;;;1.63
69785;BMP280;14177;51.520;6.764;2023-04-03T06:07:46;102954.25;;;1.67
69785;BMP280;14177;51.520;6.764;2023-04-03T06:10:16;102955.34;;;1.73
69785;BMP280;14177;51.520;6.764;2023-04-03T06:12:44;102951.41;;;1.81
69785;BMP280;14177;51.520;6.764;2023-04-03T06:15:12;102955.00;;;1.86
69785;BMP280;14177;51.520;6.764;2023-04-03T06:17:40;102946.66;;;1.92
69785;BMP280;14177;51.520;6.764;2023-04-03T06:20:08;102949.53;;;1.99
69785;BMP280;14177;51.520;6.764;2023-04-03T06:22:36;102941.41;;;2.11
69785;BMP280;14177;51.520;6.764;2023-04-03T06:25:04;102945.84;;;2.15
69785;BMP280;14177;51.520;6.764;2023-04-03T06:27:31;102936.88;;;2.27
69785;BMP280;14177;51.520;6.764;2023-04-03T06:29:59;102938.97;;;2.37
69785;BMP280;14177;51.520;6.764;2023-04-03T06:32:26;102932.38;;;2.43
69785;BMP280;14177;51.520;6.764;2023-04-03T06:34:53;102926.84;;;2.56
69785;BMP280;14177;51.520;6.764;2023-04-03T06:37:22;102925.41;;;2.64
69785;BMP280;14177;51.520;6.764;2023-04-03T06:39:49;102936.78;;;2.71
69785;BMP280;14177;51.520;6.764;2023-04-03T06:42:17;102940.59;;;2.82
69785;BMP280;14177;51.520;6.764;2023-04-03T06:44:54;102935.66;;;2.88
69785;BMP280;14177;51.520;6.764;2023-04-03T06:47:22;102943.72;;;2.98
69785;BMP280;14177;51.520;6.764;2023-04-03T06:49:49;102941.28;;;3.03
69785;BMP280;14177;51.520;6.764;2023-04-03T06:52:16;102948.63;;;3.17
69785;BMP280;14177;51.520;6.764;2023-04-03T06:54:43;102947.13;;;3.24
69785;BMP280;14177;51.520;6.764;2023-04-03T06:57:10;102961.09;;;3.32
69785;BMP280;14177;51.520;6.764;2023-04-03T06:59:37;102959.44;;;3.34
69785;BMP280;14177;51.520;6.764;2023-04-03T07:02:04;102963.25;;;3.45
69785;BMP280;14177;51.520;6.764;2023-04-03T07:04:31;102964.19;;;3.48
69785;BMP280;14177;51.520;6.764;2023-04-03T07:06:58;102971.44;;;3.59
69785;BMP280;14177;51.520;6.764;2023-04-03T07:09:26;102969.78;;;3.61
69785;BMP280;14177;51.520;6.764;2023-04-03T07:11:53;102971.47;;;3.61
69785;BMP280;14177;51.520;6.764;2023-04-03T07:14:20;102970.72;;;3.63
69785;BMP280;14177;51.520;6.764;2023-04-03T07:16:48;102970.03;;;3.70
69785;BMP280;14177;51.520;6.764;2023-04-03T07:19:15;102970.59;;;3.87
69785;BMP280;14177;51.520;6.764;2023-04-03T07:21:42;102975.28;;;4.00
69785;BMP280;14177;51.520;6.764;2023-04-03T07:24:10;102973.22;;;4.18
69785;BMP280;14177;51.520;6.764;2023-04-03T07:26:42;102959.03;;;4.30
69785;BMP280;14177;51.520;6.764;2023-04-03T07:29:09;102970.25;;;4.34
69785;BMP280;14177;51.520;6.764;2023-04-03T07:31:38;102964.66;;;4.48
69785;BMP280;14177;51.520;6.764;2023-04-03T07:34:05;102970.22;;;4.63
69785;BMP280;14177;51.520;6.764;2023-04-03T07:36:33;102975.88;;;4.81
69785;BMP280;14177;51.520;6.764;2023-04-03T07:39:00;102982.44;;;5.01
69785;BMP280;14177;51.520;6.764;2023-04-03T07:41:27;102973.47;;;5.21
69785;BMP280;14177;51.520;6.764;2023-04-03T07:43:55;102979.94;;;5.38
69785;BMP280;14177;51.520;6.764;2023-04-03T07:46:23;102976.13;;;5.58
69785;BMP280;14177;51.520;6.764;2023-04-03T07:48:51;102978.16;;;5.71
69785;BMP280;14177;51.520;6.764;2023-04-03T07:51:18;102972.78;;;5.98
69785;BMP280;14177;51.520;6.764;2023-04-03T07:53:45;102967.94;;;6.12
69785;BMP280;14177;51.520;6.764;2023-04-03T07:56:12;102974.50;;;6.38
69785;BMP280;14177;51.520;6.764;2023-04-03T07:58:39;102972.31;;;6.57
69785;BMP280;14177;51.520;6.764;2023-04-03T08:01:06;102967.59;;;6.81
69785;BMP280;14177;51.520;6.764;2023-04-03T08:03:34;102971.59;;;7.10
69785;BMP280;14177;51.520;6.764;2023-04-03T08:06:14;102966.00;;;7.38
69785;BMP280;14177;51.520;6.764;2023-04-03T08:08:47;102970.69;;;7.60
69785;BMP280;14177;51.520;6.764;2023-04-03T08:11:16;102978.59;;;7.70
69785;BMP280;14177;51.520;6.764;2023-04-03T08:13:43;102975.97;;;7.67
69785;BMP280;14177;51.520;6.764;2023-04-03T08:16:20;102974.50;;;7.84
69785;BMP280;14177;51.520;6.764;2023-04-03T08:18:49;102973.91;;;8.03
69785;BMP280;14177;51.520;6.764;2023-04-03T08:21:16;102972.28;;;8.11
69785;BMP280;14177;51.520;6.764;2023-04-03T08:23:43;102965.56;;;8.24
69785;BMP280;14177;51.520;6.764;2023-04-03T08:26:14;102970.25;;;8.51
69785;BMP280;14177;51.520;6.764;2023-04-03T08:28:42;102961.97;;;8.84
69785;BMP280;14177;51.520;6.764;2023-04-03T08:31:16;102963.03;;;9.05
69785;BMP280;14177;51.520;6.764;2023-04-03T08:33:47;102964.88;;;9.20
69785;BMP280;14177;51.520;6.764;2023-04-03T08:36:28;102957.97;;;9.22
69785;BMP280;14177;51.520;6.764;2023-04-03T08:38:57;102963.38;;;9.44
69785;BMP280;14177;51.520;6.764;2023-04-03T08:41:39;102966.13;;;9.66
69785;BMP280;14177;51.520;6.764;2023-04-03T08:47:36;102961.06;;;9.81
69785;BMP280;14177;51.520;6.764;2023-04-03T08:50:57;102971.56;;;10.02
69785;BMP280;14177;51.520;6.764;2023-04-03T08:54:33;102960.38;;;10.08
69785;BMP280;14177;51.520;6.764;2023-04-03T08:57:04;102961.31;;;10.29
69785;BMP280;14177;51.520;6.764;2023-04-03T08:59:37;102957.06;;;10.58
69785;BMP280;14177;51.520;6.764;2023-04-03T09:02:27;102959.75;;;10.84
69785;BMP280;14177;51.520;6.764;2023-04-03T09:04:56;102964.09;;;10.98
69785;BMP280;14177;51.520;6.764;2023-04-03T09:08:12;102964.09;;;11.05
69785;BMP280;14177;51.520;6.764;2023-04-03T09:10:42;102977.13;;;11.29
69785;BMP280;14177;51.520;6.764;2023-04-03T09:15:45;102971.91;;;11.74
69785;BMP280;14177;51.520;6.764;2023-04-03T09:18:37;102967.56;;;11.93
69785;BMP280;14177;51.520;6.764;2023-04-03T09:23:50;102971.06;;;11.75
69785;BMP280;14177;51.520;6.764;2023-04-03T09:26:48;102966.72;;;11.85
69785;BMP280;14177;51.520;6.764;2023-04-03T09:29:21;102964.00;;;12.11
69785;BMP280;14177;51.520;6.764;2023-04-03T09:32:18;102961.38;;;12.28
69785;BMP280;14177;51.520;6.764;2023-04-03T09:34:46;102953.53;;;12.31
69785;BMP280;14177;51.520;6.764;2023-04-03T09:40:34;102979.72;;;11.74
69785;BMP280;14177;51.520;6.764;2023-04-03T09:43:34;102964.97;;;11.87
69785;BMP280;14177;51.520;6.764;2023-04-03T09:46:33;102965.75;;;12.17
69785;BMP280;14177;51.520;6.764;2023-04-03T09:49:05;102961.34;;;12.31
69785;BMP280;14177;51.520;6.764;2023-04-03T09:51:37;102956.06;;;12.40
69785;BMP280;14177;51.520;6.764;2023-04-03T09:54:35;102952.59;;;12.41
69785;BMP280;14177;51.520;6.764;2023-04-03T09:57:12;102950.03;;;12.35
69785;BMP280;14177;51.520;6.764;2023-04-03T09:59:56;102958.78;;;12.25
69785;BMP280;14177;51.520;6.764;2023-04-03T10:02:32;102962.13;;;12.48
69785;BMP280;14177;51.520;6.764;2023-04-03T10:05:03;102962.97;;;12.54
69785;BMP280;14177;51.520;6.764;2023-04-03T10:11:15;102948.88;;;12.82
69785;BMP280;14177;51.520;6.764;2023-04-03T10:14:00;102939.28;;;12.93
69785;BMP280;14177;51.520;6.764;2023-04-03T10:16:49;102950.41;;;13.16
69785;BMP280;14177;51.520;6.764;2023-04-03T10:19:44;102948.53;;;13.36
69785;BMP280;14177;51.520;6.764;2023-04-03T10:22:34;102940.69;;;13.34
69785;BMP280;14177;51.520;6.764;2023-04-03T10:28:18;102928.53;;;13.31
69785;BMP280;14177;51.520;6.764;2023-04-03T10:31:08;102926.56;;;13.56
69785;BMP280;14177;51.520;6.764;2023-04-03T10:33:58;102904.69;;;13.66
69785;BMP280;14177;51.520;6.764;2023-04-03T10:37:10;102905.59;;;13.62
69785;BMP280;14177;51.520;6.764;2023-04-03T10:40:10;102905.50;;;13.71
69785;BMP280;14177;51.520;6.764;2023-04-03T10:46:27;102904.13;;;14.16
69785;BMP280;14177;51.520;6.764;2023-04-03T10:49:09;102907.59;;;14.13
69785;BMP280;14177;51.520;6.764;2023-04-03T10:55:02;102897.97;;;14.21
69785;BMP280;14177;51.520;6.764;2023-04-03T10:57:35;102906.84;;;14.05
69785;BMP280;14177;51.520;6.764;2023-04-03T11:00:13;102908.53;;;14.09
69785;BMP280;14177;51.520;6.764;2023-04-03T11:02:51;102893.19;;;13.82
69785;BMP280;14177;51.520;6.764;2023-04-03T11:05:40;102893.00;;;13.97
69785;BMP280;14177;51.520;6.764;2023-04-03T11:08:37;102876.19;;;14.19
69785;BMP280;14177;51.520;6.764;2023-04-03T11:11:14;102883.03;;;14.29
69785;BMP280;14177;51.520;6.764;2023-04-03T11:13:54;102880.03;;;14.56
69785;BMP280;14177;51.520;6.764;2023-04-03T11:16:27;102877.97;;;14.76
69785;BMP280;14177;51.520;6.764;2023-04-03T11:22:23;102871.41;;;15.04
69785;BMP280;14177;51.520;6.764;2023-04-03T11:25:29;102866.84;;;14.62
69785;BMP280;14177;51.520;6.764;2023-04-03T11:28:04;102867.72;;;14.62
69785;BMP280;14177;51.520;6.764;2023-04-03T11:36:45;102867.31;;;14.88
69785;BMP280;14177;51.520;6.764;2023-04-03T11:39:27;102871.56;;;14.95
69785;BMP280;14177;51.520;6.764;2023-04-03T11:41:55;102858.13;;;15.16
69785;BMP280;14177;51.520;6.764;2023-04-03T11:44:39;102849.50;;;15.58
69785;BMP280;14177;51.520;6.764;2023-04-03T11:47:12;102862.69;;;15.52
69785;BMP280;14177;51.520;6.764;2023-04-03T11:50:04;102864.38;;;15.56
69785;BMP280;14177;51.520;6.764;2023-04-03T12:11:13;102840.91;;;15.51
69785;BMP280;14177;51.520;6.764;2023-04-03T12:24:23;102816.81;;;15.31
69785;BMP280;14177;51.520;6.764;2023-04-03T12:32:47;102804.22;;;15.92
69785;BMP280;14177;51.520;6.764;2023-04-03T12:35:44;102812.00;;;15.95
69785;BMP280;14177;51.520;6.764;2023-04-03T12:39:25;102802.34;;;15.98
69785;BMP280;14177;51.520;6.764;2023-04-03T12:46:03;102787.19;;;16.11
69785;BMP280;14177;51.520;6.764;2023-04-03T12:48:02;102790.84;;;16.04
69785;BMP280;14177;51.520;6.764;2023-04-03T12:50:32;102787.13;;;16.12
69785;BMP280;14177;51.520;6.764;2023-04-03T12:53:13;102773.44;;;16.39
69785;BMP280;14177;51.520;6.764;2023-04-03T12:55:42;102782.06;;;16.44
69785;BMP280;14177;51.520;6.764;2023-04-03T12:58:19;102791.94;;;16.33
69785;BMP280;14177;51.520;6.764;2023-04-03T13:01:10;102781.00;;;16.13
69785;BMP280;14177;51.520;6.764;2023-04-03T13:03:48;102762.78;;;16.07
69785;BMP280;14177;51.520;6.764;2023-04-03T13:06:30;102764.59;;;16.43
69785;BMP280;14177;51.520;6.764;2023-04-03T13:09:01;102757.56;;;16.44
69785;BMP280;14177;51.520;6.764;2023-04-03T13:11:36;102758.44;;;16.44
69785;BMP280;14177;51.520;6.764;2023-04-03T13:14:16;102775.59;;;16.21
69785;BMP280;14177;51.520;6.764;2023-04-03T13:17:02;102767.00;;;15.75
69785;BMP280;14177;51.520;6.764;2023-04-03T13:19:31;102769.81;;;15.68
69785;BMP280;14177;51.520;6.764;2023-04-03T13:22:05;102761.41;;;15.52
69785;BMP280;14177;51.520;6.764;2023-04-03T13:24:37;102754.97;;;15.67
69785;BMP280;14177;51.520;6.764;2023-04-03T13:27:05;102751.16;;;15.81
69785;BMP280;14177;51.520;6.764;2023-04-03T13:29:36;102753.13;;;16.09
69785;BMP280;14177;51.520;6.764;2023-04-03T13:32:05;102748.75;;;16.10
69785;BMP280;14177;51.520;6.764;2023-04-03T13:34:41;102747.50;;;15.88
69785;BMP280;14177;51.520;6.764;2023-04-03T13:37:28;102752.69;;;15.91
69785;BMP280;14177;51.520;6.764;2023-04-03T13:42:38;102743.78;;;15.99
69785;BMP280;14177;51.520;6.764;2023-04-03T13:45:31;102749.28;;;15.87
69785;BMP280;14177;51.520;6.764;2023-04-03T13:48:52;102756.25;;;15.87
69785;BMP280;14177;51.520;6.764;2023-04-03T13:51:29;102757.91;;;15.91
69785;BMP280;14177;51.520;6.764;2023-04-03T13:54:01;102732.53;;;15.93
69785;BMP280;14177;51.520;6.764;2023-04-03T13:56:40;102742.81;;;16.02
69785;BMP280;14177;51.520;6.764;2023-04-03T14:04:27;102722.44;;;15.77
69785;BMP280;14177;51.520;6.764;2023-04-03T14:06:55;102732.16;;;15.72
69785;BMP280;14177;51.520;6.764;2023-04-03T14:09:25;102720.97;;;15.65
69785;BMP280;14177;51.520;6.764;2023-04-03T14:12:03;102727.94;;;15.65
69785;BMP280;14177;51.520;6.764;2023-04-03T14:14:35;102717.41;;;15.68
69785;BMP280;14177;51.520;6.764;2023-04-03T14:17:14;102720.09;;;15.65
69785;BMP280;14177;51.520;6.764;2023-04-03T14:19:53;102699.53;;;15.84
69785;BMP280;14177;51.520;6.764;2023-04-03T14:22:32;102696.75;;;15.92
69785;BMP280;14177;51.520;6.764;2023-04-03T14:25:02;102695.84;;;15.93
69785;BMP280;14177;51.520;6.764;2023-04-03T14:27:42;102698.03;;;15.75
69785;BMP280;14177;51.520;6.764;2023-04-03T14:30:25;102693.69;;;15.74
69785;BMP280;14177;51.520;6.764;2023-04-03T14:32:55;102700.84;;;15.66
69785;BMP280;14177;51.520;6.764;2023-04-03T14:35:27;102701.94;;;15.56
69785;BMP280;14177;51.520;6.764;2023-04-03T14:37:55;102694.19;;;15.51
69785;BMP280;14177;51.520;6.764;2023-04-03T14:40:26;102683.03;;;15.42
69785;BMP280;14177;51.520;6.764;2023-04-03T14:42:54;102688.88;;;15.54
69785;BMP280;14177;51.520;6.764;2023-04-03T14:45:23;102697.44;;;15.62
69785;BMP280;14177;51.520;6.764;2023-04-03T14:47:53;102685.56;;;15.46
69785;BMP280;14177;51.520;6.764;2023-04-03T14:50:26;102686.81;;;15.29
69785;BMP280;14177;51.520;6.764;2023-04-03T14:52:57;102676.50;;;15.20
69785;BMP280;14177;51.520;6.764;2023-04-03T14:55:26;102679.00;;;15.24
69785;BMP280;14177;51.520;6.764;2023-04-03T14:57:54;102687.16;;;15.11
69785;BMP280;14177;51.520;6.764;2023-04-03T15:00:22;102684.22;;;14.82
69785;BMP280;14177;51.520;6.764;2023-04-03T15:02:50;102689.88;;;14.58
69785;BMP280;14177;51.520;6.764;2023-04-03T15:05:18;102682.44;;;14.36
69785;BMP280;14177;51.520;6.764;2023-04-03T15:07:54;102671.03;;;14.41
69785;BMP280;14177;51.520;6.764;2023-04-03T15:10:24;102681.31;;;14.52
69785;BMP280;14177;51.520;6.764;2023-04-03T15:12:52;102676.81;;;14.59
69785;BMP280;14177;51.520;6.764;2023-04-03T15:15:21;102668.16;;;14.56
69785;BMP280;14177;51.520;6.764;2023-04-03T15:17:55;102683.13;;;14.48
69785;BMP280;14177;51.520;6.764;2023-04-03T15:20:27;102672.97;;;14.29
69785;BMP280;14177;51.520;6.764;2023-04-03T15:22:57;102662.75;;;14.17
69785;BMP280;14177;51.520;6.764;2023-04-03T15:25:32;102670.31;;;14.33
69785;BMP280;14177;51.520;6.764;2023-04-03T15:28:00;102664.25;;;14.30
69785;BMP280;14177;51.520;6.764;2023-04-03T15:30:27;102676.47;;;14.29
69785;BMP280;14177;51.520;6.764;2023-04-03T15:32:54;102677.41;;;14.24
69785;BMP280;14177;51.520;6.764;2023-04-03T15:35:21;102674.13;;;14.11
69785;BMP280;14177;51.520;6.764;2023-04-03T15:37:48;102680.59;;;13.86
69785;BMP280;14177;51.520;6.764;2023-04-03T15:40:16;102688.44;;;13.86
69785;BMP280;14177;51.520;6.764;2023-04-03T15:42:43;102684.97;;;13.86
69785;BMP280;14177;51.520;6.764;2023-04-03T15:45:10;102678.25;;;13.70
69785;BMP280;14177;51.520;6.764;2023-04-03T15:47:37;102684.47;;;13.60
69785;BMP280;14177;51.520;6.764;2023-04-03T15:50:06;102685.31;;;13.63
69785;BMP280;14177;51.520;6.764;2023-04-03T15:52:35;102680.47;;;13.35
69785;BMP280;14177;51.520;6.764;2023-04-03T15:55:04;102682.56;;;13.08
69785;BMP280;14177;51.520;6.764;2023-04-03T15:57:31;102685.31;;;12.96
69785;BMP280;14177;51.520;6.764;2023-04-03T15:59:58;102685.34;;;12.90